Spot Road, Arizona (BMGR) Weather observations

Data are for 10 minute period ending at time listed.
 Day   Time   Solar   Ave.   Ave.  Ave.  Vector  Max.   Total    
  of    of     Rad.   Air    Rel.  Wind   Wind   Wind  Precip.   
Year   Day            Temp.  Hum.  Speed  Dir.   Gust            
2026   (MST)  Kw/m2    F      %     mph   deg.    mph    in.     
-----------------------------------------------------------------
 121   15:35   0.64   89.1    16    7.7   271    13.3    0.00 
 121   15:40   0.63   89.9    16    4.8   282     8.2    0.00 
 121   15:45   0.62   89.8    16    5.9   314    11.0    0.00 
 121   15:50   0.60   89.6    15    5.6   174    10.5    0.00 
 121   15:55   0.59   90.6    16    8.0   225    16.6    0.00 
 121   16:00   0.58   90.7    16    8.5   203    12.1    0.00 
 121   16:05   0.56   91.3    15    7.8   218    13.3    0.00 
 121   16:10   0.55   91.6    15    9.8   247    16.0    0.00 
 121   16:15   0.53   90.8    15   10.0   262    17.7    0.00 
 121   16:20   0.51   90.3    15    6.8   323    12.1    0.00 
 121   16:25   0.50   91.0    15    9.5   296    16.0    0.00 
 121   16:30   0.48   90.6    15   10.5   316    16.6    0.00 
 121   16:35   0.47   90.7    15    7.5   303    12.7    0.00 
 121   16:40   0.45   91.4    15    9.5   288    15.5    0.00 
 121   16:45   0.44   91.2    15    5.5   289     9.9    0.00 
 121   16:50   0.42   92.2    15    4.0   255    12.7    0.00 
 121   16:55   0.40   92.1    15    8.1   325    13.3    0.00 
 121   17:00   0.39   90.7    15    4.9   327    10.5    0.00 
 121   17:05   0.37   90.6    16    8.1   315    13.8    0.00 
 121   17:10   0.36   90.6    16   13.1   358    16.6    0.00 
 121   17:15   0.34   90.2    16   10.8   345    16.0    0.00 
 121   17:20   0.32   90.6    16    9.4   334    13.8    0.00 
 121   17:25   0.31   90.4    16    3.7    11     8.8    0.00 
 121   17:30   0.29   90.6    15    8.6     4    13.3    0.00 
 121   17:35   0.27   90.5    15    6.1     8     9.9    0.00 
 121   17:40   0.26   90.5    15    4.4   357     7.7    0.00 
 121   17:45   0.24   90.8    15    4.0   309    12.1    0.00 
 121   17:50   0.22   91.7    14    4.7   238     8.8    0.00 
 121   17:55   0.21   92.3    14    4.2   205     8.8    0.00 
 121   18:00   0.19   91.8    14    6.8   206     9.9    0.00 
 121   18:05   0.18   91.3    14    6.4   182     9.3    0.00 
 121   18:10   0.16   91.0    14    5.4   187     8.2    0.00 
 121   18:15   0.15   91.6    14    6.3   227     8.8    0.00 
 121   18:20   0.13   91.3    14    8.2   188    14.9    0.00 
 121   18:25   0.12   91.2    14    8.0   208    11.0    0.00 
 121   18:30   0.10   91.0    14    7.5   216     9.9    0.00 
 121   18:35   0.09   91.1    14    5.5   198     8.2    0.00 
 121   18:40   0.08   90.8    14    4.9   196     6.5    0.00 
 121   18:45   0.07   90.7    14    5.3   185     8.2    0.00 
 121   18:50   0.06   90.4    14    3.8   173     7.1    0.00 
 121   18:55   0.05   90.4    14    2.1   151     4.3    0.00 
 121   19:00   0.04   90.4    14    2.8   168     4.3    0.00 
 121   19:05   0.03   90.1    14    3.3   172     4.3    0.00 
 121   19:10   0.02   89.9    14    4.3   161     6.5    0.00 
 121   19:15   0.01   89.8    14    3.6   188     6.0    0.00 
 121   19:20   0.00   89.5    14    2.6   158     3.8    0.00 
 121   19:25   0.00   89.4    14    2.7   152     4.3    0.00 
 121   19:30   0.00   89.3    14    2.5   126     3.2    0.00 
 121   19:35   0.00   89.2    14    3.1   118     3.8    0.00 
 121   19:40   0.00   89.2    14    3.0   122     3.8    0.00 
 121   19:45   0.00   89.0    14    2.9   140     3.8    0.00 
 121   19:50   0.00   88.6    14    2.1   156     2.6    0.00 
 121   19:55   0.00   88.6    14    0.5   164     2.1    0.00 
 121   20:00   0.00   88.3    14    2.0   159     2.6    0.00 
 121   20:05   0.00   88.4    14    2.8   154     3.2    0.00 
 121   20:10   0.00   88.6    14    3.9   173     4.3    0.00 
 121   20:15   0.00   88.4    14    5.1   164     6.5    0.00 
 121   20:20   0.00   87.2    14    6.5   164     7.1    0.00 
 121   20:25   0.00   87.7    14    6.4   158     7.1    0.00 
 121   20:30   0.00   87.3    15    6.0   147     6.5    0.00 
 121   20:35   0.00   87.0    15    5.0   124     6.0    0.00 
 121   20:40   0.00   83.5    15    4.3    47     6.5    0.00 
 121   20:45   0.00   83.7    16    5.1    43     6.5    0.00 
 121   20:50   0.00   84.5    16    5.5    50     6.5    0.00 
 121   20:55   0.00   85.7    15    5.7    61     7.1    0.00 
 121   21:00   0.00   85.7    15    6.7    66     7.7    0.00 
 121   21:05   0.00   84.9    16    8.0    75     8.8    0.00 
 121   21:10   0.00   85.4    16    7.9    84     9.3    0.00 
 121   21:15   0.00   84.6    16    6.2    89     7.7    0.00 
 121   21:20   0.00   84.5    16    5.6   106     7.1    0.00 
 121   21:25   0.00   83.4    16    6.6   123    11.0    0.00 
 121   21:30   0.00   82.0    17    9.8   140    12.7    0.00 
 121   21:35   0.00   82.7    19    9.7   168    12.1    0.00 
 121   21:40   0.00   83.1    21    9.4   178    14.4    0.00 
 121   21:45   0.00   83.2    23   10.2   178    12.1    0.00 
 121   21:50   0.00   83.3    24    9.5   175    11.6    0.00 
 121   21:55   0.00   83.2    24    9.3   175    12.1    0.00 
 121   22:00   0.00   83.0    25    8.6   176    11.6    0.00 
 121   22:05   0.00   82.4    25    6.9   188     7.7    0.00 
 121   22:10   0.00   82.3    25   10.3   181    14.9    0.00 
 121   22:15   0.00   82.6    25   13.1   172    14.9    0.00 
 121   22:20   0.00   82.7    25   13.1   174    16.6    0.00 
 121   22:25   0.00   82.4    25   12.0   171    14.4    0.00 
 121   22:30   0.00   82.2    26   11.7   171    14.9    0.00 
 121   22:35   0.00   82.0    26   11.1   172    13.3    0.00 
 121   22:40   0.00   81.9    26   11.0   180    13.3    0.00 
 121   22:45   0.00   81.9    26   11.8   188    14.4    0.00 
 121   22:50   0.00   81.9    26   12.4   186    15.5    0.00 
 121   22:55   0.00   81.7    26   12.3   182    16.6    0.00 
 121   23:00   0.00   81.9    27   14.4   179    17.2    0.00 
 121   23:05   0.00   81.6    27   11.4   164    16.0    0.00 
 121   23:10   0.00   80.6    27    6.1   122     8.8    0.00 
 121   23:15   0.00   80.6    27    5.5   124     8.8    0.00 
 121   23:20   0.00   80.8    27    4.6   139     6.5    0.00 
 121   23:25   0.00   81.0    27    4.8   120     6.5    0.00 
 121   23:30   0.00   79.6    28    7.4   108    10.5    0.00 
 121   23:35   0.00   80.8    27    9.3   138    15.5    0.00 
 121   23:40   0.00   82.2    26    9.6   164    12.7    0.00 
 121   23:45   0.00   81.9    26    7.5   167    10.5    0.00 
 121   23:50   0.00   81.6    26    7.2   168     9.3    0.00 
 121   23:55   0.00   80.1    29    6.3   137     9.3    0.00 
 122    0:00   0.00   75.6    36    7.2   102     8.8    0.00 
 122    0:05   0.00   75.7    36    5.8   109     8.2    0.00 
 122    0:10   0.00   76.2    35    5.8   110     7.1    0.00 
 122    0:15   0.00   74.9    38    7.1   105     9.3    0.00 
 122    0:20   0.00   74.4    38    6.5   101     7.7    0.00 
 122    0:25   0.00   74.2    39    7.7   104     9.3    0.00 
 122    0:30   0.00   74.2    39    7.9   110    10.5    0.00 
 122    0:35   0.00   74.1    39    7.9   117    10.5    0.00 
 122    0:40   0.00   73.9    40    9.0   117    11.0    0.00 
 122    0:45   0.00   73.5    40    8.6   116    10.5    0.00 
 122    0:50   0.00   73.2    40    8.6   107    11.0    0.00 
 122    0:55   0.00   73.0    40    9.0   107    11.0    0.00 
 122    1:00   0.00   72.8    41    8.8   101    10.5    0.00 
 122    1:05   0.00   72.5    41    9.3   105    11.0    0.00 
 122    1:10   0.00   72.4    41    9.6   108    11.6    0.00 
 122    1:15   0.00   72.2    41    8.7   112    11.6    0.00 
 122    1:20   0.00   72.2    41    9.0   105    11.6    0.00 
 122    1:25   0.00   72.0    41    7.8    96    11.0    0.00 
 122    1:30   0.00   71.8    41    8.0    94    10.5    0.00 
 122    1:35   0.00   71.8    41    7.2    99     8.8    0.00 
 122    1:40   0.00   71.6    41    7.4   106     8.8    0.00 
 122    1:45   0.00   71.5    41    7.2   106     9.3    0.00 
 122    1:50   0.00   71.3    42    7.2   104     8.8    0.00 
 122    1:55   0.00   71.1    42    6.8   108     8.2    0.00 
 122    2:00   0.00   71.0    42    6.5   114     8.2    0.00 
 122    2:05   0.00   71.0    42    6.4   112     7.7    0.00 
 122    2:10   0.00   70.7    43    6.2   120     7.1    0.00 
 122    2:15   0.00   70.5    43    5.9   108     6.5    0.00 
 122    2:20   0.00   70.1    43    6.6    96     7.7    0.00 
 122    2:25   0.00   69.8    44    7.6   107     9.3    0.00 
 122    2:30   0.00   69.8    44    7.2   114     9.3    0.00 
 122    2:35   0.00   69.8    43    7.0   120     8.8    0.00 
 122    2:40   0.00   69.8    43    6.7   118     7.7    0.00 
 122    2:45   0.00   69.7    43    6.5   120     7.7    0.00 
 122    2:50   0.00   69.7    43    6.0   117     7.1    0.00 
 122    2:55   0.00   69.9    42    5.6   111     6.5    0.00 
 122    3:00   0.00   70.0    42    5.3   105     6.0    0.00 
 122    3:05   0.00   69.6    42    5.0    95     6.0    0.00 
 122    3:10   0.00   69.0    43    5.4    90     6.5    0.00 
 122    3:15   0.00   68.8    43    4.8    87     5.4    0.00 
 122    3:20   0.00   69.1    42    4.7    94     5.4    0.00 
 122    3:25   0.00   68.7    43    5.2    96     6.0    0.00 
 122    3:30   0.00   68.4    43    6.0    98     7.1    0.00 
 122    3:35   0.00   68.2    43    5.5    94     6.5    0.00 
 122    3:40   0.00   68.1    43    5.2    88     6.5    0.00 
 122    3:45   0.00   68.1    43    5.2    89     6.5    0.00 
 122    3:50   0.00   68.3    42    5.8    92     7.1    0.00 
 122    3:55   0.00   68.3    42    6.1    94     7.7    0.00 
 122    4:00   0.00   68.1    42    6.2   101     7.1    0.00 
 122    4:05   0.00   68.4    41    7.2   103     8.8    0.00 
 122    4:10   0.00   68.0    41    7.8   107     9.3    0.00 
 122    4:15   0.00   68.0    41    8.2   111     9.3    0.00 
 122    4:20   0.00   68.1    40    7.9   103     9.3    0.00 
 122    4:25   0.00   68.1    40    8.2    91     9.9    0.00 
 122    4:30   0.00   68.1    40   10.2    50    13.3    0.00 
 122    4:35   0.00   67.5    42   12.6    72    15.5    0.00 
 122    4:40   0.00   67.7    42   11.9    68    13.8    0.00 
 122    4:45   0.00   66.3    44   11.4    73    13.8    0.00 
 122    4:50   0.00   66.7    44   10.9   109    13.3    0.00 
 122    4:55   0.00   66.5    44   11.5   120    13.3    0.00 
 122    5:00   0.00   66.6    44   10.2   126    12.7    0.00 
 122    5:05   0.00   67.1    44    9.7   102    11.0    0.00 
 122    5:10   0.00   66.0    45    8.9    76    10.5    0.00 
 122    5:15   0.00   66.9    44    8.8   103    10.5    0.00 
 122    5:20   0.00   66.9    44    8.8   103    10.5    0.00 
 122    5:25   0.00   66.3    44    8.7   100    10.5    0.00 
 122    5:30   0.00   66.5    44    8.7   108    10.5    0.00 
 122    5:35   0.00   66.6    43   10.1   109    11.0    0.00 
 122    5:40   0.00   66.9    43   10.6   112    11.6    0.00 
 122    5:45   0.00   67.5    41   11.2   107    12.1    0.00 
 122    5:50   0.01   67.7    41   10.6   105    11.6    0.00 
 122    5:55   0.01   67.6    41   10.1   108    11.6    0.00 
 122    6:00   0.02   67.4    41    9.4   111    10.5    0.00 
 122    6:05   0.03   67.1    41    9.5   108    10.5    0.00 
 122    6:10   0.04   66.7    42    9.2   108    10.5    0.00 
 122    6:15   0.06   66.9    42    8.9   108     9.9    0.00 
 122    6:20   0.07   66.7    42    7.9   104     9.3    0.00 
 122    6:25   0.08   66.3    42    8.3    95     9.9    0.00 
 122    6:30   0.09   66.5    42    6.9    92     8.2    0.00 
 122    6:35   0.11   66.8    41    6.2   110     8.2    0.00 
 122    6:40   0.12   66.8    41    6.2    95     8.2    0.00 
 122    6:45   0.14   67.0    41    6.4    85     7.7    0.00 
 122    6:50   0.15   67.6    40    5.4    92     6.5    0.00 
 122    6:55   0.17   68.1    40    4.7    82     6.5    0.00 
 122    7:00   0.18   68.7    39    6.4    69     8.2    0.00 
 122    7:05   0.20   69.4    38    5.5    63     7.1    0.00 
 122    7:10   0.21   70.0    37    5.7    60     7.1    0.00 
 122    7:15   0.23   70.5    36    7.6    66     9.3    0.00 
 122    7:20   0.25   70.7    35    7.5    68     8.8    0.00 
 122    7:25   0.26   70.6    36    6.9    79     8.2    0.00 
 122    7:30   0.28   71.3    35    7.0    72     8.8    0.00 
 122    7:35   0.30   71.3    35    8.3    60     9.3    0.00 
 122    7:40   0.31   71.3    36    7.9    52     9.9    0.00 
 122    7:45   0.33   71.6    35    6.2    54     7.7    0.00 
 122    7:50   0.34   72.3    35    7.1    46     8.2    0.00 
 122    7:55   0.36   72.8    34    7.6    47     9.3    0.00 
 122    8:00   0.38   73.6    33    7.4    43     8.8    0.00 
 122    8:05   0.39   74.1    33    7.0    47     8.8    0.00 
 122    8:10   0.41   75.1    32    6.4    55     8.2    0.00 
 122    8:15   0.43   75.3    32    6.3    49     8.2    0.00 
 122    8:20   0.44   75.7    32    6.6    44     7.7    0.00 
 122    8:25   0.46   76.0    32    6.6    53     7.7    0.00 
 122    8:30   0.48   76.4    32    6.4    48     8.8    0.00 
 122    8:35   0.49   77.2    31    5.3    34     7.1    0.00 
 122    8:40   0.51   78.0    30    7.2    24     9.3    0.00 
 122    8:45   0.52   78.6    29    6.0    19     8.8    0.00 
 122    8:50   0.54   78.9    29    6.2    20     9.3    0.00 
 122    8:55   0.55   79.6    28    6.7    52    10.5    0.00 
 122    9:00   0.57   79.7    28    6.0    32     8.8    0.00 
 122    9:05   0.58   80.7    27    4.7    32     9.3    0.00 
 122    9:10   0.60   80.6    27    5.2    22     8.8    0.00 
 122    9:15   0.61   81.0    27    5.5    49    10.5    0.00 
 122    9:20   0.62   81.2    27    6.0    30     9.3    0.00 
 122    9:25   0.64   82.2    26    5.8    38    13.3    0.00 
 122    9:30   0.65   82.0    26    6.2    28    10.5    0.00 
 122    9:35   0.66   81.9    26    7.2    29    12.1    0.00 
 122    9:40   0.68   82.7    25    7.3    40    11.6    0.00 
 122    9:45   0.69   83.0    25    6.6    45    13.3    0.00 
 122    9:50   0.70   83.2    25    7.6    58    10.5    0.00 
 122    9:55   0.71   83.6    24    9.9    58    14.9    0.00 
 122   10:00   0.72   84.3    24    9.6    61    13.3    0.00 
 122   10:05   0.74   83.9    25   10.3    68    16.0    0.00 
 122   10:10   0.75   84.1    24    7.5    69    11.0    0.00 
 122   10:15   0.76   85.2    24    6.2    53    12.7    0.00 
 122   10:20   0.77   85.4    23    6.1    44    11.6    0.00 
 122   10:25   0.78   86.4    22    6.3    76    10.5    0.00 
 122   10:30   0.79   86.3    21    8.3    56    13.8    0.00 
 122   10:35   0.80   86.3    21    6.8    76    11.0    0.00 
 122   10:40   0.81   86.8    20    6.6    75    11.6    0.00 
 122   10:45   0.82   86.6    20    8.0    71    13.8    0.00 
 122   10:50   0.83   87.1    20    7.9    91    11.0    0.00 
 122   10:55   0.83   88.1    19    8.2    26    12.1    0.00 
 122   11:00   0.84   89.0    18    5.2   352     7.7    0.00 
 122   11:05   0.85   89.4    18    8.0    54    11.6    0.00 
 122   11:10   0.86   89.0    18    5.1    91     8.2    0.00 
 122   11:15   0.86   89.5    18    4.4    28     6.5    0.00 
 122   11:20   0.87   89.7    16    8.4    35    12.7    0.00 
 122   11:25   0.88   89.5    16    7.3    53    11.0    0.00 
 122   11:30   0.87   89.9    16    5.0   116     9.3    0.00 
 122   11:35   0.87   90.7    16    5.5    97    11.0    0.00 
 122   11:40   0.88   90.8    15    7.1    25    11.6    0.00 
 122   11:45   0.90   91.0    15    4.6     2    10.5    0.00 
 122   11:50   0.90   92.0    14    7.4    14    16.0    0.00 
 122   11:55   0.90   91.6    13   10.0    22    14.9    0.00 
 122   12:00   0.91   91.6    13    9.8    13    17.2    0.00 
 122   12:05   0.90   91.7    13    6.6    60    14.4    0.00 
 122   12:10   0.91   92.3    12    5.0    90    12.7    0.00 
 122   12:15   0.91   92.4    12   10.9    71    16.6    0.00 
 122   12:20   0.92   91.2    13    7.6    44    17.7    0.00 
 122   12:25   0.92   92.5    12    4.8   116     8.2    0.00 
 122   12:30   0.90   92.3    12    4.8    79    11.0    0.00 
 122   12:35   0.91   92.1    12    4.5   143     7.7    0.00 
 122   12:40   0.90   93.7    10    6.2   172    13.3    0.00 
 122   12:45   0.90   93.3    11    9.8   165    14.9    0.00 
 122   12:50   0.87   92.8    10    9.2   195    13.8    0.00 
 122   12:55   0.87   93.4    10    9.2   204    14.9    0.00 
 122   13:00   0.85   93.8    10    7.7   202    12.1    0.00 
 122   13:05   0.84   94.1    10   10.1   236    15.5    0.00 
 122   13:10   0.88   93.9    10    5.9   302    15.5    0.00 
 122   13:15   0.90   94.0    10    4.6   235     9.3    0.00 
 122   13:20   0.92   94.5    10    5.5   248    12.7    0.00 
 122   13:25   0.90   95.4    10    8.0   255    12.1    0.00 
 122   13:30   0.86   94.2    10    7.3   252    15.5    0.00 
 122   13:35   0.88   93.6    10    9.9   233    15.5    0.00 
 122   13:40   0.88   93.5    10    7.9   197    16.0    0.00 
 122   13:45   0.88   93.3    10    6.8   178    10.5    0.00 
 122   13:50   0.87   94.7    10    5.2   214     8.2    0.00 
 122   13:55   0.84   94.4    10    4.2   311    12.1    0.00 
 122   14:00   0.85   95.5    10    5.6   262     9.9    0.00 
 122   14:05   0.85   95.4    10    5.8   220    10.5    0.00 
 122   14:10   0.79   95.2    10    4.2   235     8.8    0.00 
 122   14:15   0.73   96.1     9    6.5   203    12.1    0.00 
 122   14:20   0.81   94.8    10    8.7   229    12.1    0.00 
 122   14:25   0.82   95.4     9    7.4   221    11.0    0.00 
 122   14:30   0.74   94.6    10    9.0   191    16.6    0.00 
 122   14:35   0.80   94.3    10    5.8   166     9.9    0.00 
 122   14:40   0.64   95.1    10    3.7   140     8.8    0.00 
 122   14:45   0.63   95.1    10    6.6   162    11.0    0.00 
 122   14:50   0.75   95.6    10    7.4   157    12.7    0.00 
 122   14:55   0.71   94.8    10    4.7   125     8.8    0.00 
 122   15:00   0.72   96.1     9    2.6   179     5.4    0.00 
 122   15:05   0.71   97.0     9    2.7   358     8.8    0.00 
 122   15:10   0.69   95.0    10    4.5   359     9.9    0.00 
 122   15:15   0.61   94.7    10    6.7     7    11.0    0.00 
 122   15:20   0.68   94.1    10    7.6   344    12.1    0.00 
 122   15:25   0.53   95.2    10    6.9   306    11.0    0.00 
 122   15:30   0.49   94.6    10    9.0   331    14.9    0.00 

Return to Spot Road graphs page.


Western Regional Climate Center,wrcc@dri.edu